Time;durP1;ratioP1;P1;durP2;ratioP2;P2;SDS_P1;SDS_P2;PMS_P1;PMS_P2;Temp;Humidity;BMP_temperature;BMP_pressure;BME280_temperature;BME280_humidity;BME280_pressure;Samples;Min_cycle;Max_cycle;Signal;HPM_P1;HPM_P2
2023/02/11 00:01:54;;;;;;;13.60;8.37;;;5.00;99.90;;;;;;5061393;28;20743;-65
2023/02/11 00:05:02;;;;;;;21.73;8.73;;;4.90;99.90;;;;;;5059221;28;20287;-65
2023/02/11 00:08:07;;;;;;;16.63;8.33;;;4.80;99.90;;;;;;5067703;28;20223;-64
2023/02/11 00:11:16;;;;;;;21.30;8.70;;;4.80;99.90;;;;;;5057813;28;20321;-64
2023/02/11 00:14:22;;;;;;;19.07;8.70;;;4.90;99.90;;;;;;5069782;28;20210;-65
2023/02/11 00:17:28;;;;;;;15.07;8.57;;;4.90;99.90;;;;;;5074452;28;20238;-64
2023/02/11 00:20:35;;;;;;;18.60;8.60;;;4.90;99.90;;;;;;5066810;28;20705;-65
2023/02/11 00:23:41;;;;;;;18.23;8.60;;;4.90;99.90;;;;;;5064376;28;20295;-65
2023/02/11 00:26:47;;;;;;;21.67;8.40;;;4.90;99.90;;;;;;5065747;28;20243;-64
2023/02/11 00:29:53;;;;;;;20.10;8.73;;;4.80;99.90;;;;;;5073040;28;20186;-64
2023/02/11 00:33:00;;;;;;;17.77;8.70;;;4.90;99.90;;;;;;5068864;28;20751;-64
2023/02/11 00:36:10;;;;;;;17.07;9.30;;;4.80;99.90;;;;;;5070223;28;20295;-64
2023/02/11 00:39:16;;;;;;;18.50;8.37;;;4.80;99.90;;;;;;5066290;28;20222;-64
2023/02/11 00:42:23;;;;;;;25.83;8.73;;;4.70;99.90;;;;;;5067666;28;20831;-64
2023/02/11 00:45:29;;;;;;;23.73;9.00;;;4.80;99.90;;;;;;5070760;28;20240;-64
2023/02/11 00:48:36;;;;;;;19.97;8.83;;;4.80;99.90;;;;;;5063037;28;20235;-64
2023/02/11 00:51:44;;;;;;;23.83;9.50;;;4.80;99.90;;;;;;5068595;28;20215;-65
2023/02/11 00:54:50;;;;;;;18.47;8.90;;;4.80;99.90;;;;;;5053523;28;20187;-65
2023/02/11 00:57:57;;;;;;;13.67;8.70;;;4.70;99.90;;;;;;5072486;28;20218;-65
2023/02/11 01:01:04;;;;;;;19.47;9.10;;;4.70;99.90;;;;;;5055444;28;20202;-65
2023/02/11 01:04:10;;;;;;;22.70;8.70;;;4.60;99.90;;;;;;5066344;28;20273;-64
2023/02/11 01:07:18;;;;;;;26.00;9.53;;;4.50;99.90;;;;;;5054310;28;20234;-64
2023/02/11 01:10:24;;;;;;;16.77;9.17;;;4.50;99.90;;;;;;5063921;28;20362;-64
2023/02/11 01:13:31;;;;;;;22.47;10.60;;;4.50;99.90;;;;;;5063156;28;20287;-65
2023/02/11 01:16:36;;;;;;;24.10;12.17;;;4.50;99.90;;;;;;5058862;28;20222;-65
2023/02/11 01:19:42;;;;;;;20.00;10.50;;;4.50;99.90;;;;;;5068468;28;20726;-64
2023/02/11 01:22:50;;;;;;;28.30;12.30;;;4.50;99.90;;;;;;5058204;28;20226;-64
2023/02/11 01:25:56;;;;;;;30.17;10.90;;;4.50;99.90;;;;;;5066077;28;20322;-65
2023/02/11 01:29:01;;;;;;;25.03;9.83;;;4.60;99.90;;;;;;5067503;28;20219;-64
2023/02/11 01:32:07;;;;;;;18.33;9.47;;;4.60;99.90;;;;;;5065320;28;20191;-65
2023/02/11 01:35:14;;;;;;;22.77;10.93;;;4.70;99.90;;;;;;5062966;28;20207;-64
2023/02/11 01:38:24;;;;;;;23.93;9.27;;;4.70;99.90;;;;;;5059518;28;20231;-64
2023/02/11 01:41:30;;;;;;;25.43;9.90;;;4.70;99.90;;;;;;5062745;28;20222;-64
2023/02/11 01:44:39;;;;;;;22.30;8.60;;;4.70;99.90;;;;;;5060296;28;20253;-64
2023/02/11 01:47:45;;;;;;;23.10;9.67;;;4.70;99.90;;;;;;5066116;28;20249;-64
2023/02/11 01:50:57;;;;;;;22.00;9.90;;;4.60;99.90;;;;;;5068738;28;20731;-65
2023/02/11 01:57:33;;;;;;;17.53;9.03;;;4.70;99.90;;;;;;5065910;28;20210;-65
2023/02/11 02:00:41;;;;;;;19.77;9.87;;;4.80;99.90;;;;;;5070759;28;20236;-64
2023/02/11 02:03:52;;;;;;;33.03;10.37;;;4.90;99.90;;;;;;5070859;28;20273;-65
2023/02/11 02:07:03;;;;;;;18.67;8.80;;;5.00;99.90;;;;;;5071402;28;20730;-64
2023/02/11 02:10:17;;;;;;;18.40;9.07;;;5.00;99.90;;;;;;5067552;28;20942;-64
2023/02/11 02:13:23;;;;;;;28.93;9.13;;;5.10;99.90;;;;;;5067890;28;20243;-64
2023/02/11 02:16:33;;;;;;;22.20;8.93;;;5.10;99.90;;;;;;5065599;28;20200;-65
2023/02/11 02:20:11;;;;;;;24.03;9.10;;;5.20;99.90;;;;;;5069235;28;20231;-64
2023/02/11 02:23:28;;;;;;;18.20;8.13;;;5.30;99.90;;;;;;5063271;28;20222;-64
2023/02/11 02:26:53;;;;;;;17.73;7.83;;;5.40;99.90;;;;;;5071331;28;20223;-64
2023/02/11 02:30:39;;;;;;;17.90;8.40;;;5.40;99.90;;;;;;5071815;28;20219;-64
2023/02/11 02:33:52;;;;;;;15.80;8.50;;;5.50;99.90;;;;;;5062007;28;20329;-65
2023/02/11 02:37:04;;;;;;;25.63;8.90;;;5.50;99.90;;;;;;5068623;28;20534;-64
2023/02/11 02:40:15;;;;;;;22.00;9.07;;;5.60;99.90;;;;;;5068587;28;20227;-64
2023/02/11 02:43:22;;;;;;;22.33;9.03;;;5.60;99.90;;;;;;5063991;28;20219;-65
2023/02/11 02:46:30;;;;;;;21.33;8.67;;;5.60;99.90;;;;;;5075249;28;20631;-64
2023/02/11 02:49:38;;;;;;;18.33;8.20;;;5.60;99.90;;;;;;5067053;28;20222;-64
2023/02/11 02:52:56;;;;;;;21.20;9.13;;;5.60;99.90;;;;;;5066700;28;20206;-65
2023/02/11 02:56:10;;;;;;;22.40;8.47;;;5.70;99.90;;;;;;5081994;28;20603;-65
2023/02/11 02:59:27;;;;;;;19.77;8.97;;;5.70;99.90;;;;;;5071571;28;20269;-65
2023/02/11 03:02:39;;;;;;;24.70;9.43;;;5.70;99.90;;;;;;5068796;28;20850;-64
2023/02/11 03:05:53;;;;;;;25.10;8.43;;;5.80;99.90;;;;;;5068967;28;20237;-64
2023/02/11 03:09:06;;;;;;;21.03;8.83;;;5.90;99.90;;;;;;5069940;28;20778;-65
2023/02/11 03:12:17;;;;;;;21.07;9.30;;;5.90;99.90;;;;;;5062324;28;20273;-64
2023/02/11 03:15:25;;;;;;;20.37;9.37;;;5.90;99.90;;;;;;5059484;28;20845;-65
2023/02/11 03:18:32;;;;;;;18.47;8.77;;;5.90;99.90;;;;;;5064662;28;20235;-65
2023/02/11 03:21:42;;;;;;;20.80;9.00;;;5.90;99.90;;;;;;5067302;28;20673;-65
2023/02/11 03:24:48;;;;;;;21.87;9.47;;;6.00;99.90;;;;;;5063460;28;20636;-64
2023/02/11 03:28:02;;;;;;;16.63;10.00;;;6.00;99.90;;;;;;5062190;28;20223;-65
2023/02/11 03:31:14;;;;;;;27.73;9.50;;;5.90;99.90;;;;;;5063754;28;20258;-65
2023/02/11 03:34:28;;;;;;;20.17;9.10;;;6.00;99.90;;;;;;5066514;28;20222;-64
2023/02/11 03:37:39;;;;;;;17.67;9.23;;;6.10;99.90;;;;;;5070363;28;20265;-65
2023/02/11 03:40:46;;;;;;;21.80;9.63;;;6.00;99.90;;;;;;5069295;28;20199;-64
2023/02/11 03:43:55;;;;;;;20.63;9.73;;;6.00;99.90;;;;;;5066868;28;20252;-65
2023/02/11 03:47:05;;;;;;;20.70;9.40;;;6.00;99.90;;;;;;5065172;28;20195;-65
2023/02/11 03:50:14;;;;;;;18.50;9.20;;;6.00;99.90;;;;;;5063841;28;20671;-65
2023/02/11 03:53:22;;;;;;;22.67;9.93;;;6.00;99.90;;;;;;5067723;28;20183;-65
2023/02/11 03:56:33;;;;;;;19.23;10.07;;;6.00;99.90;;;;;;5072051;28;20195;-65
2023/02/11 03:59:51;;;;;;;17.73;9.93;;;6.00;99.90;;;;;;5066625;28;20264;-65
2023/02/11 04:02:57;;;;;;;21.47;9.93;;;6.10;99.90;;;;;;5067054;28;20230;-65
2023/02/11 04:06:03;;;;;;;23.27;9.80;;;6.10;99.90;;;;;;5069374;28;20831;-65
2023/02/11 04:09:10;;;;;;;21.37;10.50;;;6.10;99.90;;;;;;5065312;28;20345;-65
2023/02/11 04:12:16;;;;;;;20.90;10.47;;;6.20;99.90;;;;;;5072334;28;20325;-65
2023/02/11 04:15:22;;;;;;;19.87;10.90;;;6.10;99.90;;;;;;5071737;28;20237;-64
2023/02/11 04:18:28;;;;;;;29.83;10.67;;;6.10;99.90;;;;;;5058127;28;20223;-65
2023/02/11 04:21:34;;;;;;;18.67;10.17;;;6.20;99.90;;;;;;5067562;28;20191;-64
2023/02/11 04:24:42;;;;;;;20.23;10.63;;;6.10;99.90;;;;;;5053765;28;20232;-65
2023/02/11 04:27:48;;;;;;;26.30;11.97;;;6.20;99.90;;;;;;5055374;28;20721;-65
2023/02/11 04:30:54;;;;;;;26.97;11.90;;;6.20;99.90;;;;;;5066852;28;20222;-65
2023/02/11 04:34:00;;;;;;;31.30;11.67;;;6.30;99.90;;;;;;5063522;28;20261;-65
2023/02/11 04:37:06;;;;;;;22.40;11.43;;;6.20;99.90;;;;;;5067989;28;20262;-65
2023/02/11 04:40:13;;;;;;;22.43;11.90;;;6.20;99.90;;;;;;5059257;28;20578;-65
2023/02/11 04:43:19;;;;;;;25.63;11.80;;;6.30;99.90;;;;;;5068954;28;20253;-65
2023/02/11 04:46:25;;;;;;;26.50;11.67;;;6.30;99.90;;;;;;5070527;28;20947;-65
2023/02/11 04:49:31;;;;;;;26.03;11.30;;;6.30;99.90;;;;;;5066764;28;20223;-65
2023/02/11 04:52:37;;;;;;;18.33;10.57;;;6.30;99.90;;;;;;5070404;28;20210;-65
2023/02/11 04:55:44;;;;;;;28.23;12.33;;;6.30;99.90;;;;;;5063203;28;20195;-65
2023/02/11 04:58:50;;;;;;;28.60;10.90;;;6.30;99.90;;;;;;5064268;28;20784;-65
2023/02/11 05:01:56;;;;;;;26.57;11.60;;;6.30;99.90;;;;;;5071010;28;20226;-65
2023/02/11 05:05:02;;;;;;;28.03;12.50;;;6.30;99.90;;;;;;5067369;28;20234;-65
2023/02/11 05:08:08;;;;;;;20.80;11.70;;;6.30;99.90;;;;;;5067991;28;20202;-64
2023/02/11 05:11:18;;;;;;;24.30;12.43;;;6.30;99.90;;;;;;5059946;28;20989;-64
2023/02/11 05:14:24;;;;;;;26.43;12.57;;;6.30;99.90;;;;;;5069763;28;20219;-64
2023/02/11 05:17:30;;;;;;;28.40;12.93;;;6.30;99.90;;;;;;5068704;28;20251;-65
2023/02/11 05:20:38;;;;;;;28.73;13.10;;;6.20;99.90;;;;;;5069456;28;20252;-64
2023/02/11 05:23:44;;;;;;;26.87;12.53;;;6.20;99.90;;;;;;5064591;28;20231;-65
2023/02/11 05:26:51;;;;;;;29.17;13.40;;;6.20;99.90;;;;;;5066695;28;20661;-64
2023/02/11 05:29:57;;;;;;;28.20;13.10;;;6.10;99.90;;;;;;5073567;28;20186;-65
2023/02/11 05:33:03;;;;;;;26.30;13.80;;;6.10;99.90;;;;;;5075139;28;20211;-65
2023/02/11 05:36:11;;;;;;;33.87;14.23;;;6.10;99.90;;;;;;5070063;28;20234;-65
2023/02/11 05:39:17;;;;;;;27.80;13.73;;;6.00;99.90;;;;;;5072169;28;20600;-65
2023/02/11 05:42:24;;;;;;;30.80;15.03;;;6.00;99.90;;;;;;5072612;28;20578;-65
2023/02/11 05:45:30;;;;;;;28.03;15.07;;;6.00;99.90;;;;;;5064787;28;20230;-64
2023/02/11 05:48:36;;;;;;;34.13;14.83;;;6.20;99.90;;;;;;5072133;28;20223;-65
2023/02/11 05:51:42;;;;;;;29.80;15.23;;;6.20;99.90;;;;;;5072414;28;20266;-64
2023/02/11 05:54:48;;;;;;;30.37;15.37;;;6.20;99.90;;;;;;5069249;28;20353;-64
2023/02/11 05:57:55;;;;;;;27.70;14.73;;;6.20;99.90;;;;;;5070840;28;20218;-64
2023/02/11 06:01:01;;;;;;;33.43;14.57;;;6.20;99.90;;;;;;5070389;28;20611;-64
2023/02/11 06:04:07;;;;;;;27.97;14.93;;;6.20;99.90;;;;;;5069676;28;20258;-65
2023/02/11 06:07:13;;;;;;;28.73;14.83;;;6.20;99.90;;;;;;5069667;28;20329;-65
2023/02/11 06:10:20;;;;;;;34.13;17.57;;;6.20;99.90;;;;;;5064736;28;20231;-64
2023/02/11 06:13:27;;;;;;;35.93;15.83;;;6.20;99.90;;;;;;5068338;28;20287;-65
2023/02/11 06:16:32;;;;;;;31.23;16.23;;;6.30;99.90;;;;;;5075886;28;20330;-64
2023/02/11 06:19:38;;;;;;;31.23;14.77;;;6.30;99.90;;;;;;5066529;28;20280;-65
2023/02/11 06:22:45;;;;;;;27.67;15.73;;;6.30;99.90;;;;;;5065127;28;20199;-64
2023/02/11 06:25:51;;;;;;;28.93;15.80;;;6.40;99.90;;;;;;5064577;28;20879;-65
2023/02/11 06:29:01;;;;;;;31.90;16.23;;;6.30;99.90;;;;;;5061087;28;20593;-64
2023/02/11 06:32:07;;;;;;;32.07;16.07;;;6.30;99.90;;;;;;5063448;28;21047;-65
2023/02/11 06:35:34;;;;;;;38.90;16.87;;;6.30;99.90;;;;;;5070691;28;20243;-65
2023/02/11 06:38:40;;;;;;;38.23;17.83;;;6.30;99.90;;;;;;5070322;28;20211;-64
2023/02/11 06:41:45;;;;;;;33.23;17.20;;;6.30;99.90;;;;;;5063329;28;20301;-64
2023/02/11 06:44:53;;;;;;;33.37;18.10;;;6.20;99.90;;;;;;5064109;28;20243;-64
2023/02/11 06:47:59;;;;;;;41.27;17.33;;;6.20;99.90;;;;;;5068463;28;20624;-64
2023/02/11 06:51:08;;;;;;;33.07;17.03;;;6.10;99.90;;;;;;5060853;28;20234;-64
2023/02/11 06:54:14;;;;;;;31.60;17.07;;;6.10;99.90;;;;;;5054650;28;20223;-64
2023/02/11 06:57:20;;;;;;;34.03;17.57;;;6.00;99.90;;;;;;5067291;28;20199;-64
2023/02/11 07:00:28;;;;;;;36.43;18.40;;;5.90;99.90;;;;;;5068157;28;20207;-64
2023/02/11 07:03:35;;;;;;;35.00;18.10;;;6.00;99.90;;;;;;5063360;28;20195;-64
2023/02/11 07:06:41;;;;;;;36.93;18.33;;;6.00;99.90;;;;;;5064843;28;20234;-64
2023/02/11 07:09:47;;;;;;;38.50;18.50;;;6.00;99.90;;;;;;5066428;28;20913;-64
2023/02/11 07:12:53;;;;;;;51.80;20.40;;;6.00;99.90;;;;;;5063790;28;20187;-65
2023/02/11 07:16:06;;;;;;;49.13;20.63;;;6.00;99.90;;;;;;5067374;28;20199;-64
2023/02/11 07:19:12;;;;;;;43.93;20.50;;;6.00;99.90;;;;;;5069627;28;21408;-65
2023/02/11 07:22:18;;;;;;;47.73;22.80;;;6.10;99.90;;;;;;5067767;28;20235;-64
2023/02/11 07:25:24;;;;;;;48.53;20.93;;;6.20;99.90;;;;;;5067256;28;20574;-65
2023/02/11 07:28:31;;;;;;;51.40;22.47;;;6.20;99.90;;;;;;5070004;28;20563;-65
2023/02/11 07:31:38;;;;;;;52.97;23.67;;;6.30;99.90;;;;;;5070040;28;20345;-65
2023/02/11 07:34:46;;;;;;;52.60;22.50;;;6.30;99.90;;;;;;5058711;28;20252;-65
2023/02/11 07:37:52;;;;;;;45.70;22.60;;;6.30;99.90;;;;;;5066725;28;20379;-65
2023/02/11 07:41:00;;;;;;;53.73;23.17;;;6.40;99.90;;;;;;5063949;28;20220;-65
2023/02/11 07:44:06;;;;;;;58.17;23.30;;;6.40;99.90;;;;;;5071699;28;20219;-65
2023/02/11 07:47:13;;;;;;;50.07;23.27;;;6.50;99.90;;;;;;5069362;28;20234;-65
2023/02/11 07:50:19;;;;;;;44.00;22.47;;;6.50;99.90;;;;;;5066625;28;20352;-65
2023/02/11 07:53:24;;;;;;;50.07;23.57;;;6.60;99.90;;;;;;5069082;28;20231;-65
2023/02/11 07:56:30;;;;;;;46.53;23.17;;;6.60;99.90;;;;;;5068438;28;20318;-65
2023/02/11 07:59:36;;;;;;;54.30;23.13;;;6.60;99.90;;;;;;5075840;28;20242;-65
2023/02/11 08:02:43;;;;;;;54.13;24.23;;;6.70;99.90;;;;;;5071109;28;20242;-65
2023/02/11 08:05:50;;;;;;;51.93;23.50;;;6.80;99.90;;;;;;5069202;28;20245;-65
2023/02/11 08:08:57;;;;;;;45.57;23.50;;;6.80;99.90;;;;;;5075057;28;20284;-65
2023/02/11 08:12:03;;;;;;;59.77;24.43;;;6.80;99.90;;;;;;5071212;28;20198;-65
2023/02/11 08:15:09;;;;;;;51.87;23.90;;;6.90;99.90;;;;;;5074043;28;20227;-65
2023/02/11 08:18:16;;;;;;;56.43;25.07;;;7.00;99.90;;;;;;5067487;28;20619;-65
2023/02/11 08:21:22;;;;;;;53.37;24.47;;;7.00;99.90;;;;;;5069349;28;20283;-65
2023/02/11 08:24:28;;;;;;;51.97;24.57;;;7.10;99.90;;;;;;5067858;28;20677;-65
2023/02/11 08:27:34;;;;;;;52.63;24.60;;;7.10;99.90;;;;;;5068369;28;20317;-65
2023/02/11 08:30:41;;;;;;;57.60;27.33;;;7.20;99.90;;;;;;5072157;28;20229;-65
2023/02/11 08:33:48;;;;;;;61.30;26.77;;;7.30;99.90;;;;;;5070944;28;20227;-65
2023/02/11 08:36:54;;;;;;;56.43;25.93;;;7.30;99.90;;;;;;5074236;28;20629;-65
2023/02/11 08:40:00;;;;;;;57.57;26.23;;;7.40;99.90;;;;;;5073721;28;20356;-65
2023/02/11 08:43:06;;;;;;;59.90;28.03;;;7.40;99.90;;;;;;5075270;28;20199;-65
2023/02/11 08:46:15;;;;;;;56.60;27.07;;;7.40;99.90;;;;;;5067158;28;20253;-65
2023/02/11 08:49:23;;;;;;;56.87;27.13;;;7.40;99.90;;;;;;5065889;28;20870;-65
2023/02/11 08:52:29;;;;;;;56.87;27.43;;;7.40;99.90;;;;;;5066330;28;20239;-65
2023/02/11 08:55:35;;;;;;;60.53;26.93;;;7.40;99.90;;;;;;5065313;28;20289;-65
2023/02/11 08:58:41;;;;;;;59.77;27.93;;;7.50;99.90;;;;;;5063081;28;20237;-65
2023/02/11 09:01:47;;;;;;;62.43;28.23;;;7.50;99.90;;;;;;5057176;28;20204;-65
2023/02/11 09:04:54;;;;;;;62.00;28.50;;;7.50;99.90;;;;;;5053104;28;20657;-65
2023/02/11 09:08:00;;;;;;;68.03;28.10;;;7.50;99.90;;;;;;5065355;28;20593;-65
2023/02/11 09:11:06;;;;;;;65.73;28.27;;;7.50;99.90;;;;;;5067250;28;20276;-65
2023/02/11 09:14:17;;;;;;;62.50;28.60;;;7.60;99.90;;;;;;5071287;28;20268;-65
2023/02/11 09:17:23;;;;;;;60.53;29.13;;;7.60;99.90;;;;;;5070813;28;20227;-65
2023/02/11 09:20:31;;;;;;;67.33;28.73;;;7.60;99.90;;;;;;5060457;28;20250;-65
2023/02/11 09:23:37;;;;;;;59.57;27.87;;;7.70;99.90;;;;;;5078393;28;20233;-65
2023/02/11 09:26:43;;;;;;;63.17;29.43;;;7.70;99.90;;;;;;5064320;28;20232;-65
2023/02/11 09:29:49;;;;;;;63.07;27.97;;;7.70;99.90;;;;;;5061548;28;20227;-65
2023/02/11 09:32:54;;;;;;;64.70;27.73;;;7.80;99.90;;;;;;5070568;28;20222;-65
2023/02/11 09:36:02;;;;;;;63.70;28.77;;;7.80;99.90;;;;;;5070501;28;20735;-65
2023/02/11 09:39:12;;;;;;;58.53;27.77;;;7.80;99.90;;;;;;5058492;28;20250;-65
2023/02/11 09:42:41;;;;;;;57.63;29.43;;;7.80;99.90;;;;;;5060232;28;20244;-65
2023/02/11 09:45:47;;;;;;;61.40;28.73;;;7.90;99.90;;;;;;5064508;28;20607;-65
2023/02/11 09:48:56;;;;;;;64.93;29.93;;;8.00;99.90;;;;;;5061546;28;20220;-65
2023/02/11 09:52:08;;;;;;;64.57;28.80;;;8.10;99.90;;;;;;5055030;28;20718;-65
2023/02/11 09:55:20;;;;;;;59.67;29.57;;;8.10;99.90;;;;;;5061618;28;20207;-65
2023/02/11 09:58:29;;;;;;;56.00;28.27;;;8.20;99.90;;;;;;5067172;28;20202;-65
2023/02/11 10:01:40;;;;;;;54.80;27.20;;;8.20;99.90;;;;;;5061645;28;20273;-65
2023/02/11 10:05:15;;;;;;;56.40;28.50;;;8.20;99.90;;;;;;5064018;28;20227;-65
2023/02/11 10:08:30;;;;;;;53.47;27.60;;;8.20;99.90;;;;;;5057853;28;20266;-65
2023/02/11 10:11:46;;;;;;;52.90;27.50;;;8.30;99.90;;;;;;5064166;28;21721;-65
2023/02/11 10:15:11;;;;;;;55.17;26.83;;;8.20;99.90;;;;;;5069368;28;20235;-65
2023/02/11 10:18:40;;;;;;;54.13;27.37;;;8.20;99.90;;;;;;5066973;28;20567;-65
2023/02/11 10:21:55;;;;;;;54.30;28.07;;;8.30;99.90;;;;;;5073034;28;20210;-65
2023/02/11 10:25:17;;;;;;;58.53;28.83;;;8.30;99.90;;;;;;5066486;28;20207;-65
2023/02/11 10:28:27;;;;;;;53.47;27.93;;;8.30;99.90;;;;;;5069791;28;20196;-65
2023/02/11 10:31:39;;;;;;;53.10;28.13;;;8.30;99.90;;;;;;5073441;28;20223;-65
2023/02/11 10:34:45;;;;;;;60.27;28.20;;;8.30;99.90;;;;;;5066798;28;20230;-65
2023/02/11 10:37:52;;;;;;;55.70;28.93;;;8.30;99.90;;;;;;5070412;28;20245;-65
2023/02/11 10:40:59;;;;;;;51.67;27.10;;;8.40;99.90;;;;;;5067294;28;20223;-65
2023/02/11 10:44:07;;;;;;;57.60;28.97;;;8.40;99.90;;;;;;5076376;28;20202;-65
2023/02/11 10:47:17;;;;;;;58.07;27.93;;;8.30;99.90;;;;;;5071358;28;20213;-65
2023/02/11 10:50:25;;;;;;;51.57;28.03;;;8.40;99.90;;;;;;5072321;28;20223;-65
2023/02/11 10:53:32;;;;;;;57.83;29.13;;;8.40;99.90;;;;;;5064834;28;20736;-65
2023/02/11 10:56:44;;;;;;;62.20;29.00;;;8.40;99.90;;;;;;5057455;28;20218;-66
2023/02/11 10:59:59;;;;;;;52.43;28.23;;;8.40;99.90;;;;;;5072599;28;20215;-65
2023/02/11 11:03:14;;;;;;;54.83;29.23;;;8.40;99.90;;;;;;5065536;28;20203;-65
2023/02/11 11:06:30;;;;;;;57.90;27.80;;;8.40;99.90;;;;;;5067520;28;20896;-66
2023/02/11 11:09:46;;;;;;;52.10;27.50;;;8.40;99.90;;;;;;5068866;28;20246;-66
2023/02/11 11:12:55;;;;;;;54.10;28.47;;;8.50;99.90;;;;;;5061974;28;20199;-66
2023/02/11 11:16:26;;;;;;;52.07;27.10;;;8.50;99.90;;;;;;5068700;28;20265;-66
2023/02/11 11:19:32;;;;;;;54.03;28.03;;;8.50;99.90;;;;;;5066080;28;20708;-66
2023/02/11 11:22:38;;;;;;;56.10;29.20;;;8.60;99.90;;;;;;5067713;28;20261;-66
2023/02/11 11:25:58;;;;;;;51.23;27.30;;;8.60;99.90;;;;;;5068489;28;20226;-66
2023/02/11 11:29:10;;;;;;;50.70;27.27;;;8.60;99.90;;;;;;5068450;28;20298;-65
2023/02/11 11:32:20;;;;;;;52.17;28.07;;;8.60;99.90;;;;;;5061178;28;20319;-66
2023/02/11 11:35:28;;;;;;;55.87;27.13;;;8.70;99.90;;;;;;5061187;28;20280;-66
2023/02/11 11:38:36;;;;;;;53.53;28.40;;;8.70;99.90;;;;;;5056456;28;20227;-66
2023/02/11 11:41:50;;;;;;;56.30;28.77;;;8.70;99.90;;;;;;5061575;28;20238;-66
2023/02/11 11:44:59;;;;;;;54.27;28.53;;;8.80;99.90;;;;;;5061737;28;20234;-66
2023/02/11 11:48:12;;;;;;;53.50;28.60;;;8.80;99.90;;;;;;5061525;28;20600;-66
2023/02/11 11:51:19;;;;;;;48.20;26.93;;;8.90;99.90;;;;;;5058796;28;20953;-66
2023/02/11 11:54:27;;;;;;;50.53;27.13;;;9.00;99.90;;;;;;5066651;28;20743;-66
2023/02/11 11:57:37;;;;;;;49.37;28.00;;;9.10;99.90;;;;;;5070798;28;20219;-66
2023/02/11 12:00:53;;;;;;;46.93;27.00;;;9.20;99.90;;;;;;5069038;28;20223;-66
2023/02/11 12:04:21;;;;;;;48.00;27.50;;;9.20;99.90;;;;;;5077379;28;20230;-66
2023/02/11 12:07:39;;;;;;;45.53;26.53;;;9.30;99.90;;;;;;5069701;28;21174;-66
2023/02/11 12:10:56;;;;;;;46.47;26.63;;;9.30;99.90;;;;;;5066798;28;20616;-66
2023/02/11 12:14:14;;;;;;;47.27;26.23;;;9.40;99.90;;;;;;5065732;28;20292;-66
2023/02/11 12:17:42;;;;;;;51.00;27.90;;;9.30;99.90;;;;;;5067467;28;20215;-66
2023/02/11 12:21:06;;;;;;;49.43;27.10;;;9.40;99.90;;;;;;5064432;28;20758;-66
2023/02/11 12:24:29;;;;;;;44.53;26.60;;;9.40;99.90;;;;;;5065689;28;20247;-65
2023/02/11 12:27:48;;;;;;;46.43;27.47;;;9.30;99.90;;;;;;5065303;28;20223;-65
2023/02/11 12:31:14;;;;;;;48.07;27.80;;;9.20;99.90;;;;;;5059365;28;20203;-66
2023/02/11 12:34:51;;;;;;;46.87;27.43;;;9.20;99.90;;;;;;5066234;28;20277;-66
2023/02/11 12:38:17;;;;;;;45.47;27.60;;;9.30;99.90;;;;;;5068713;28;20217;-66
2023/02/11 12:45:21;;;;;;;46.07;27.43;;;9.40;99.90;;;;;;5067550;28;20220;-66
2023/02/11 12:48:40;;;;;;;48.63;27.73;;;9.40;99.90;;;;;;5062722;28;20708;-66
2023/02/11 12:52:03;;;;;;;45.63;26.80;;;9.30;99.90;;;;;;5064878;28;20230;-66
2023/02/11 12:55:19;;;;;;;49.53;27.63;;;9.30;99.90;;;;;;5065639;28;20268;-66
2023/02/11 12:58:30;;;;;;;51.83;28.23;;;9.40;99.90;;;;;;5057969;28;20682;-66
2023/02/11 13:01:51;;;;;;;47.47;26.77;;;9.40;99.90;;;;;;5063837;28;20255;-65
2023/02/11 13:05:01;;;;;;;41.20;25.87;;;9.30;99.90;;;;;;5060255;28;20932;-66
2023/02/11 13:08:14;;;;;;;49.33;28.83;;;9.40;99.90;;;;;;5062969;28;20215;-65
2023/02/11 13:11:24;;;;;;;48.80;28.77;;;9.40;99.90;;;;;;5061769;28;20602;-66
2023/02/11 13:14:34;;;;;;;44.60;27.80;;;9.40;99.90;;;;;;5059815;28;20608;-65
2023/02/11 13:17:49;;;;;;;44.70;27.20;;;9.40;99.90;;;;;;5060682;28;20297;-66
2023/02/11 13:21:02;;;;;;;47.90;26.87;;;9.40;99.90;;;;;;5053180;28;20267;-65
2023/02/11 13:24:22;;;;;;;45.27;27.90;;;9.40;99.90;;;;;;5069126;28;20333;-65
2023/02/11 13:27:38;;;;;;;47.00;27.67;;;9.40;99.90;;;;;;5056869;28;20567;-65
2023/02/11 13:30:46;;;;;;;43.50;26.30;;;9.50;99.90;;;;;;5054071;28;20204;-65
2023/02/11 13:33:52;;;;;;;43.73;26.23;;;9.50;99.90;;;;;;5060399;28;20290;-65
2023/02/11 13:36:58;;;;;;;44.10;26.07;;;9.50;99.90;;;;;;5061062;28;20276;-65
2023/02/11 13:40:20;;;;;;;45.87;27.57;;;9.50;99.90;;;;;;5066021;28;20261;-65
2023/02/11 13:43:29;;;;;;;43.97;26.83;;;9.50;99.90;;;;;;5059107;28;20610;-66
2023/02/11 13:46:54;;;;;;;47.70;28.27;;;9.50;99.90;;;;;;5067071;28;20196;-66
2023/02/11 13:50:02;;;;;;;43.57;26.47;;;9.50;99.90;;;;;;5066547;28;20349;-66
2023/02/11 13:53:08;;;;;;;46.40;27.60;;;9.50;99.90;;;;;;5064625;28;20215;-65
2023/02/11 13:56:32;;;;;;;42.07;27.07;;;9.50;99.90;;;;;;5070834;28;20261;-65
2023/02/11 13:59:47;;;;;;;46.30;26.53;;;9.50;99.90;;;;;;5076661;28;20235;-66
2023/02/11 14:10:52;;;;;;;44.53;27.30;;;9.50;99.90;;;;;;5079523;28;20626;-66
2023/02/11 14:14:29;;;;;;;42.83;25.93;;;9.40;99.90;;;;;;5060375;28;20711;-66
2023/02/11 14:17:35;;;;;;;46.73;26.67;;;9.40;99.90;;;;;;5067256;28;21042;-66
2023/02/11 14:20:43;;;;;;;42.57;27.20;;;9.40;99.90;;;;;;5067057;28;20258;-65
2023/02/11 14:23:52;;;;;;;46.30;28.90;;;9.50;99.90;;;;;;5062415;28;21049;-65
2023/02/11 14:27:01;;;;;;;45.90;27.03;;;9.40;99.90;;;;;;5064199;28;20231;-65
2023/02/11 14:30:41;;;;;;;49.40;27.83;;;9.50;99.90;;;;;;5069018;28;20234;-66
2023/02/11 14:34:30;;;;;;;48.37;27.90;;;9.50;99.90;;;;;;5067519;28;20250;-65
2023/02/11 14:37:47;;;;;;;46.27;27.73;;;9.50;99.90;;;;;;5068043;28;20587;-65
2023/02/11 14:41:01;;;;;;;49.53;29.47;;;9.50;99.90;;;;;;5068542;28;20901;-66
2023/02/11 14:44:15;;;;;;;48.27;27.93;;;9.50;99.90;;;;;;5069464;28;20214;-66
2023/02/11 14:47:29;;;;;;;49.93;28.67;;;9.50;99.90;;;;;;5054225;28;20696;-65
2023/02/11 14:50:41;;;;;;;46.00;28.23;;;9.50;99.90;;;;;;5057730;28;20235;-66
2023/02/11 14:53:50;;;;;;;49.20;28.43;;;9.40;99.90;;;;;;5066622;28;20767;-66
2023/02/11 14:57:08;;;;;;;50.23;29.23;;;9.50;99.90;;;;;;5068844;28;20869;-65
2023/02/11 15:00:18;;;;;;;47.33;28.27;;;9.40;99.90;;;;;;5067983;28;20203;-65
2023/02/11 15:03:28;;;;;;;47.70;27.93;;;9.40;99.90;;;;;;5068603;28;20271;-66
2023/02/11 15:06:38;;;;;;;46.33;27.37;;;9.40;99.90;;;;;;5058789;28;20246;-65
2023/02/11 15:09:47;;;;;;;46.50;27.23;;;9.40;99.90;;;;;;5060949;28;20274;-66
2023/02/11 15:12:53;;;;;;;53.43;28.63;;;9.40;99.90;;;;;;5058601;28;20668;-65
2023/02/11 15:16:04;;;;;;;50.70;28.63;;;9.40;99.90;;;;;;5060741;28;21652;-65
2023/02/11 15:19:23;;;;;;;47.43;26.50;;;9.30;99.90;;;;;;5074900;28;20265;-66
2023/02/11 15:22:35;;;;;;;46.20;27.40;;;9.30;99.90;;;;;;5057201;28;20222;-65
2023/02/11 15:25:51;;;;;;;45.77;27.17;;;9.30;99.90;;;;;;5065598;28;20280;-66
2023/02/11 15:28:57;;;;;;;48.93;28.33;;;9.30;99.90;;;;;;5058415;28;20219;-65
2023/02/11 15:32:13;;;;;;;50.23;28.83;;;9.30;99.90;;;;;;5061077;28;20199;-65
2023/02/11 15:35:20;;;;;;;49.83;29.00;;;9.30;99.90;;;;;;5066577;28;20252;-66
2023/02/11 15:38:28;;;;;;;52.73;29.27;;;9.20;99.90;;;;;;5070076;28;20191;-66
2023/02/11 15:41:36;;;;;;;53.50;28.87;;;9.20;99.90;;;;;;5059898;28;20723;-66
2023/02/11 15:44:42;;;;;;;52.93;28.73;;;9.20;99.90;;;;;;5063960;28;20272;-66
2023/02/11 15:47:51;;;;;;;52.90;28.90;;;9.20;99.90;;;;;;5060256;28;20226;-66
2023/02/11 15:51:02;;;;;;;47.53;27.47;;;9.10;99.90;;;;;;5069337;28;20264;-66
2023/02/11 15:54:17;;;;;;;53.37;29.37;;;9.20;99.90;;;;;;5065076;28;20207;-65
2023/02/11 15:57:23;;;;;;;57.20;28.47;;;9.10;99.90;;;;;;5047929;28;20231;-65
2023/02/11 16:00:34;;;;;;;50.67;27.27;;;9.10;99.90;;;;;;5058268;28;20217;-65
2023/02/11 16:03:42;;;;;;;47.57;27.73;;;9.10;99.90;;;;;;5062041;28;21324;-66
2023/02/11 16:06:50;;;;;;;51.73;28.97;;;9.00;99.90;;;;;;5060277;28;20219;-65
2023/02/11 16:09:58;;;;;;;55.17;28.97;;;9.00;99.90;;;;;;5056621;28;20327;-65
2023/02/11 16:13:18;;;;;;;48.17;26.70;;;9.00;99.90;;;;;;5061577;28;20223;-65
2023/02/11 16:16:27;;;;;;;52.17;28.60;;;9.00;99.90;;;;;;5063635;28;20279;-66
2023/02/11 16:19:35;;;;;;;48.77;27.77;;;8.90;99.90;;;;;;5065693;28;20260;-66
2023/02/11 16:22:46;;;;;;;51.10;28.93;;;8.90;99.90;;;;;;5059504;28;20231;-65
2023/02/11 16:25:58;;;;;;;54.33;28.17;;;8.80;99.90;;;;;;5061191;28;20672;-65
2023/02/11 16:29:13;;;;;;;49.93;27.97;;;8.80;99.90;;;;;;5060925;28;20235;-66
2023/02/11 16:32:21;;;;;;;48.53;26.97;;;8.80;99.90;;;;;;5057749;28;20235;-66
2023/02/11 16:35:27;;;;;;;50.83;28.70;;;8.80;99.90;;;;;;5070733;28;20735;-65